Time;durP1;ratioP1;P1;durP2;ratioP2;P2;SDS_P1;SDS_P2;PMS_P1;PMS_P2;Temp;Humidity;BMP_temperature;BMP_pressure;BME280_temperature;BME280_humidity;BME280_pressure;Samples;Min_cycle;Max_cycle;Signal;HPM_P1;HPM_P2
2023/05/24 00:01:24;;;;;;;13.43;7.70;;;;;;;14.03;100.00;98540.06;5057345;28;20038;-93
2023/05/24 00:03:52;;;;;;;12.07;7.45;;;;;;;14.00;100.00;98548.19;5040512;28;20041;-92
2023/05/24 00:06:18;;;;;;;12.88;7.45;;;;;;;14.07;100.00;98568.38;5040493;28;20395;-94
2023/05/24 00:08:44;;;;;;;12.48;7.20;;;;;;;14.08;100.00;98574.59;5057894;28;20473;-94
2023/05/24 00:11:10;;;;;;;14.90;7.32;;;;;;;13.93;100.00;98549.41;5057158;28;20042;-94
2023/05/24 00:13:36;;;;;;;12.43;7.03;;;;;;;13.86;100.00;98546.16;5056931;28;20049;-94
2023/05/24 00:16:02;;;;;;;11.35;7.40;;;;;;;13.85;100.00;98547.06;5037440;28;20049;-94
2023/05/24 00:18:31;;;;;;;10.48;6.78;;;;;;;13.86;100.00;98546.16;5020441;28;20044;-94
2023/05/24 00:20:59;;;;;;;13.82;7.50;;;;;;;13.86;100.00;98531.91;5038056;28;20037;-95
2023/05/24 00:23:25;;;;;;;15.80;8.15;;;;;;;13.95;100.00;98551.06;5040209;28;20045;-94
2023/05/24 00:25:51;;;;;;;11.85;8.02;;;;;;;14.00;100.00;98561.56;5040438;28;20054;-93
2023/05/24 00:28:22;;;;;;;14.40;8.00;;;;;;;13.80;100.00;98540.22;5019321;28;20049;-93
2023/05/24 00:30:50;;;;;;;13.50;7.85;;;;;;;13.82;100.00;98541.00;5019656;28;20411;-93
2023/05/24 00:33:15;;;;;;;12.93;7.32;;;;;;;13.87;100.00;98549.69;5019735;28;20061;-94
2023/05/24 00:35:42;;;;;;;11.82;7.65;;;;;;;13.72;100.00;98538.72;5029960;28;20042;-93
2023/05/24 00:38:09;;;;;;;15.82;7.47;;;;;;;13.76;100.00;98543.00;5019874;28;20042;-93
2023/05/24 00:40:35;;;;;;;15.20;7.78;;;;;;;13.80;100.00;98559.78;5030519;28;20495;-94
2023/05/24 00:43:01;;;;;;;14.88;6.88;;;;;;;13.55;100.00;98531.44;5020297;28;20129;-93
2023/05/24 00:45:27;;;;;;;15.77;7.03;;;;;;;13.46;100.00;98525.63;5039426;28;20046;-94
2023/05/24 00:47:53;;;;;;;11.55;7.32;;;;;;;13.50;100.00;98537.91;5039283;28;20483;-93
2023/05/24 00:50:19;;;;;;;12.98;7.68;;;;;;;13.37;100.00;98542.03;5039181;28;20080;-94
2023/05/24 00:52:47;;;;;;;13.80;7.57;;;;;;;13.40;100.00;98533.88;5039486;28;20048;-93
2023/05/24 00:55:16;;;;;;;12.50;7.20;;;;;;;13.32;100.00;98519.06;5028731;28;20041;-94
2023/05/24 00:57:42;;;;;;;11.88;7.00;;;;;;;13.25;100.00;98516.66;5019717;28;20046;-93
2023/05/24 01:00:10;;;;;;;11.25;7.53;;;;;;;13.07;100.00;98510.31;5019461;28;20099;-93
2023/05/24 01:02:36;;;;;;;11.20;6.72;;;;;;;13.08;100.00;98525.41;5022640;28;20033;-94
2023/05/24 01:05:02;;;;;;;13.25;7.28;;;;;;;13.04;100.00;98518.44;5038448;28;20052;-94
2023/05/24 01:07:40;;;;;;;11.43;7.22;;;;;;;13.05;100.00;98517.50;5055305;28;20045;-93
2023/05/24 01:10:13;;;;;;;13.98;7.65;;;;;;;13.19;100.00;98547.19;5052014;28;20045;-92
2023/05/24 01:12:52;;;;;;;14.65;7.15;;;;;;;13.18;100.00;98558.78;5019089;28;20065;-93
2023/05/24 01:15:23;;;;;;;;;;;;;;;13.27;100.00;98557.53;5019133;28;20042;-92
2023/05/24 01:18:00;;;;;;;11.00;6.60;;;;;;;13.18;100.00;98540.09;5018804;28;19925;-95
2023/05/24 01:20:29;;;;;;;12.38;7.22;;;;;;;13.22;100.00;98555.06;5018646;28;20443;-95
2023/05/24 01:23:06;;;;;;;10.55;6.88;;;;;;;13.00;100.00;98508.81;5017895;28;20185;-91
2023/05/24 01:25:52;;;;;;;10.68;7.30;;;;;;;13.05;100.00;98545.06;5017710;28;20049;-94
2023/05/24 01:28:21;;;;;;;10.90;6.97;;;;;;;12.90;100.00;98543.91;5019701;28;20117;-94
2023/05/24 01:30:47;;;;;;;11.88;7.38;;;;;;;12.74;100.00;98508.09;5023599;28;20414;-95
2023/05/24 01:33:14;;;;;;;16.35;7.50;;;;;;;12.80;100.00;98531.84;5018688;28;20438;-95
2023/05/24 01:35:41;;;;;;;12.77;7.28;;;;;;;12.82;100.00;98530.00;5019933;28;20046;-94
2023/05/24 01:38:09;;;;;;;14.85;8.57;;;;;;;12.77;100.00;98515.94;5020097;28;20096;-94
2023/05/24 01:40:36;;;;;;;12.53;7.30;;;;;;;12.85;100.00;98526.31;5019817;28;20045;-94
2023/05/24 01:43:10;;;;;;;12.50;7.38;;;;;;;12.73;100.00;98509.03;5019581;28;20452;-95
2023/05/24 01:45:47;;;;;;;12.27;7.03;;;;;;;12.81;100.00;98528.25;5020855;28;20053;-94
2023/05/24 01:48:18;;;;;;;12.80;7.78;;;;;;;12.77;100.00;98515.09;5018461;28;20037;-94
2023/05/24 01:50:51;;;;;;;12.25;7.15;;;;;;;12.76;100.00;98530.22;5018920;28;20516;-93
2023/05/24 01:53:18;;;;;;;11.68;7.15;;;;;;;12.79;100.00;98545.25;5018020;28;20042;-94
2023/05/24 01:55:48;;;;;;;13.27;7.35;;;;;;;12.91;100.00;98561.63;5018441;28;20073;-93
2023/05/24 01:58:16;;;;;;;13.82;7.65;;;;;;;12.91;100.00;98560.78;5018386;28;20052;-94
2023/05/24 02:00:45;;;;;;;13.00;7.63;;;;;;;12.70;100.00;98525.13;5019213;28;20041;-94
2023/05/24 02:03:13;;;;;;;13.02;7.53;;;;;;;12.87;100.00;98556.50;5018959;28;20038;-94
2023/05/24 02:05:39;;;;;;;11.60;7.00;;;;;;;12.72;100.00;98533.94;5018387;28;20065;-95
2023/05/24 02:08:05;;;;;;;11.63;7.43;;;;;;;12.69;100.00;98534.94;5018987;28;20046;-93
2023/05/24 02:10:31;;;;;;;11.70;7.15;;;;;;;12.68;100.00;98535.00;5019253;28;20050;-95
2023/05/24 02:12:58;;;;;;;15.32;7.53;;;;;;;12.53;100.00;98513.34;5018681;28;20037;-93
2023/05/24 02:15:25;;;;;;;11.75;7.68;;;;;;;12.61;100.00;98520.16;5017930;28;20036;-94
2023/05/24 02:17:54;;;;;;;12.35;7.63;;;;;;;12.53;100.00;98509.78;5019090;28;20025;-92
2023/05/24 02:20:21;;;;;;;14.75;7.78;;;;;;;12.72;100.00;98553.50;5018185;28;20046;-93
2023/05/24 02:22:47;;;;;;;22.42;7.80;;;;;;;12.51;100.00;98525.88;5017967;28;20041;-94
2023/05/24 02:25:13;;;;;;;13.38;8.02;;;;;;;12.57;100.00;98540.75;5016441;28;20042;-94
2023/05/24 02:27:40;;;;;;;12.65;7.45;;;;;;;12.70;100.00;98557.16;5017991;28;20061;-93
2023/05/24 02:30:07;;;;;;;11.68;7.57;;;;;;;12.49;100.00;98530.41;5020851;28;20496;-94
2023/05/24 02:32:33;;;;;;;13.93;6.93;;;;;;;12.61;100.00;98533.50;5019244;28;20126;-94
2023/05/24 02:35:01;;;;;;;14.85;9.63;;;;;;;12.52;100.00;98514.25;5021722;28;20050;-95
2023/05/24 02:37:27;;;;;;;15.23;9.05;;;;;;;12.66;100.00;98536.84;5021832;28;20042;-94
2023/05/24 02:39:53;;;;;;;12.65;7.68;;;;;;;12.67;100.00;98550.16;5021809;28;20495;-94
2023/05/24 02:42:19;;;;;;;14.90;8.40;;;;;;;12.69;100.00;98550.94;5021593;28;20096;-94
2023/05/24 02:44:47;;;;;;;13.18;7.70;;;;;;;12.50;100.00;98516.13;5021516;28;20053;-94
2023/05/24 02:47:14;;;;;;;12.73;7.18;;;;;;;12.51;100.00;98517.88;5021779;28;20038;-94
2023/05/24 02:49:40;;;;;;;13.38;7.82;;;;;;;12.53;100.00;98518.69;5022013;28;20048;-95
2023/05/24 02:52:07;;;;;;;14.82;7.82;;;;;;;12.52;100.00;98514.25;5021727;28;20136;-96
2023/05/24 02:54:33;;;;;;;14.43;7.93;;;;;;;12.51;100.00;98524.97;5021399;28;20046;-95
2023/05/24 02:57:00;;;;;;;13.77;7.75;;;;;;;12.50;100.00;98524.13;5021887;28;20157;-94
2023/05/24 02:59:26;;;;;;;15.20;7.43;;;;;;;12.46;100.00;98524.31;5021162;28;20037;-94
2023/05/24 03:01:52;;;;;;;12.45;7.65;;;;;;;12.33;100.00;98534.56;5020318;28;20140;-94
2023/05/24 03:04:19;;;;;;;14.70;7.90;;;;;;;12.27;100.00;98521.47;5021657;28;20053;-94
2023/05/24 03:06:46;;;;;;;18.80;8.85;;;;;;;12.36;100.00;98547.81;5020197;28;20049;-95
2023/05/24 03:09:15;;;;;;;14.07;7.82;;;;;;;12.21;100.00;98527.03;5021862;28;20049;-94
2023/05/24 03:11:41;;;;;;;12.27;7.45;;;;;;;12.20;100.00;98523.50;5022688;28;20097;-93
2023/05/24 03:14:09;;;;;;;13.73;8.05;;;;;;;12.20;100.00;98525.28;5021257;28;20046;-94
2023/05/24 03:16:35;;;;;;;13.35;7.93;;;;;;;12.15;100.00;98537.94;5021526;28;20050;-94
2023/05/24 03:19:01;;;;;;;13.40;7.70;;;;;;;12.29;100.00;98559.59;5020834;28;20037;-95
2023/05/24 03:21:27;;;;;;;13.82;7.90;;;;;;;12.17;100.00;98541.41;5020616;28;20447;-93
2023/05/24 03:23:53;;;;;;;13.15;7.53;;;;;;;12.16;100.00;98545.00;5021354;28;20483;-93
2023/05/24 03:26:21;;;;;;;13.55;7.60;;;;;;;12.08;100.00;98526.63;5021072;28;20041;-95
2023/05/24 03:28:49;;;;;;;13.60;7.97;;;;;;;12.11;100.00;98534.50;5024918;28;20058;-95
2023/05/24 03:31:15;;;;;;;12.27;7.83;;;;;;;12.09;100.00;98533.69;5026042;28;20450;-94
2023/05/24 03:33:41;;;;;;;15.02;7.75;;;;;;;12.16;100.00;98548.53;5024058;28;20469;-93
2023/05/24 03:36:07;;;;;;;14.63;8.13;;;;;;;12.01;100.00;98536.63;5024615;28;20049;-94
2023/05/24 03:38:33;;;;;;;15.32;7.80;;;;;;;12.01;100.00;98546.41;5024066;28;20076;-94
2023/05/24 03:40:59;;;;;;;15.57;8.15;;;;;;;12.08;100.00;98562.16;5021274;28;20408;-94
2023/05/24 03:43:26;;;;;;;14.45;7.75;;;;;;;11.96;100.00;98551.91;5021585;28;20045;-95
2023/05/24 03:45:52;;;;;;;14.30;7.70;;;;;;;11.92;100.00;98537.81;5021649;28;20505;-94
2023/05/24 03:48:19;;;;;;;13.93;8.27;;;;;;;11.89;100.00;98540.63;5022241;28;20073;-94
2023/05/24 03:50:45;;;;;;;13.98;7.93;;;;;;;11.85;100.00;98535.44;5021833;28;20049;-94
2023/05/24 03:53:11;;;;;;;16.27;8.35;;;;;;;11.85;100.00;98538.09;5021783;28;20145;-94
2023/05/24 03:55:37;;;;;;;16.90;7.40;;;;;;;11.85;100.00;98544.28;5021202;28;20050;-94
2023/05/24 03:58:03;;;;;;;12.63;7.65;;;;;;;12.08;100.00;98585.28;5021243;28;20042;-94
2023/05/24 04:00:30;;;;;;;18.60;8.15;;;;;;;12.02;100.00;98569.50;5021253;28;20050;-94
2023/05/24 04:02:56;;;;;;;15.13;7.45;;;;;;;12.00;100.00;98552.69;5022473;28;20054;-94
2023/05/24 04:05:25;;;;;;;15.38;7.90;;;;;;;12.16;100.00;98576.97;5021542;28;20041;-94
2023/05/24 04:07:52;;;;;;;18.60;7.82;;;;;;;12.29;100.00;98588.94;5021888;28;20057;-94
2023/05/24 04:10:18;;;;;;;12.48;7.63;;;;;;;12.17;100.00;98562.75;5021908;28;20496;-94
2023/05/24 04:12:44;;;;;;;14.85;8.20;;;;;;;12.23;100.00;98558.06;5022321;28;20073;-94
2023/05/24 04:15:14;;;;;;;14.13;8.25;;;;;;;12.39;100.00;98582.34;5022334;28;20144;-92
2023/05/24 04:17:42;;;;;;;14.07;8.07;;;;;;;12.56;100.00;98596.84;5021093;28;20049;-94
2023/05/24 04:20:09;;;;;;;14.33;8.73;;;;;;;12.42;100.00;98562.69;5020649;28;20575;-94
2023/05/24 04:22:35;;;;;;;15.80;8.85;;;;;;;12.48;100.00;98573.13;5020797;28;20136;-94
2023/05/24 04:25:01;;;;;;;16.25;8.77;;;;;;;12.57;100.00;98572.75;5021009;28;20048;-94
2023/05/24 04:27:26;;;;;;;18.52;9.52;;;;;;;12.74;100.00;98599.66;5020438;28;20058;-93
2023/05/24 04:29:53;;;;;;;17.95;8.55;;;;;;;12.61;100.00;98570.84;5020458;28;20057;-94
2023/05/24 04:32:19;;;;;;;16.30;9.23;;;;;;;12.79;100.00;98598.63;5020486;28;20046;-93
2023/05/24 04:34:46;;;;;;;19.42;9.45;;;;;;;12.72;100.00;98581.97;5020411;28;20064;-94
2023/05/24 04:37:15;;;;;;;16.92;8.23;;;;;;;12.74;100.00;98572.13;5021388;28;20399;-95
2023/05/24 04:39:42;;;;;;;15.02;9.02;;;;;;;12.88;100.00;98588.47;5021423;28;20045;-95
2023/05/24 04:42:09;;;;;;;14.90;8.77;;;;;;;12.80;100.00;98566.53;5022466;28;20046;-93
2023/05/24 04:44:35;;;;;;;19.67;8.75;;;;;;;13.08;100.00;98602.81;5022239;28;20050;-94
2023/05/24 04:47:02;;;;;;;14.02;8.30;;;;;;;13.03;100.00;98572.75;5022364;28;20072;-94
2023/05/24 04:49:28;;;;;;;15.90;8.75;;;;;;;13.21;100.00;98601.41;5022215;28;20492;-95
2023/05/24 04:51:56;;;;;;;16.67;9.50;;;;;;;13.14;100.00;98567.84;5022461;28;20042;-94
2023/05/24 04:54:23;;;;;;;17.48;9.00;;;;;;;13.25;100.00;98565.63;5022333;28;20045;-94
2023/05/24 04:56:49;;;;;;;16.30;8.85;;;;;;;13.53;100.00;98602.78;5021628;28;20045;-95
2023/05/24 04:59:15;;;;;;;19.83;9.63;;;;;;;13.44;100.00;98573.75;5021362;28;20042;-95
2023/05/24 05:01:41;;;;;;;15.25;8.90;;;;;;;14.02;100.00;98606.97;5021881;28;20046;-95
2023/05/24 05:04:07;;;;;;;17.75;9.73;;;;;;;14.46;100.00;98593.41;5021439;28;20056;-94
2023/05/24 05:06:37;;;;;;;14.75;9.18;;;;;;;14.95;100.00;98593.81;5022053;28;20049;-93
2023/05/24 05:09:09;;;;;;;17.33;8.93;;;;;;;15.48;100.00;98606.41;5022565;28;20102;-94
2023/05/24 05:11:35;;;;;;;16.70;7.88;;;;;;;15.90;100.00;98586.47;5021650;28;20053;-94
2023/05/24 05:14:01;;;;;;;11.20;7.13;;;;;;;15.84;100.00;98576.03;5020341;28;20050;-94
2023/05/24 05:16:27;;;;;;;11.20;6.78;;;;;;;15.45;100.00;98576.22;5019348;28;20046;-94
2023/05/24 05:18:53;;;;;;;11.07;6.78;;;;;;;14.61;100.00;98570.44;5018549;28;20492;-94
2023/05/24 05:21:19;;;;;;;13.32;7.57;;;;;;;14.65;100.00;98588.97;5020066;28;20144;-95
2023/05/24 05:23:45;;;;;;;15.63;8.00;;;;;;;13.91;100.00;98602.94;5027185;28;20144;-93
2023/05/24 05:26:13;;;;;;;14.77;8.13;;;;;;;13.95;100.00;98576.94;5039962;28;20073;-94
2023/05/24 05:28:39;;;;;;;16.13;8.63;;;;;;;13.90;100.00;98568.25;5039065;28;20041;-93
2023/05/24 05:31:05;;;;;;;18.25;9.55;;;;;;;14.06;100.00;98608.56;5047257;28;20058;-93
2023/05/24 05:33:31;;;;;;;19.10;9.30;;;;;;;13.79;100.00;98582.06;5017840;28;20050;-92
2023/05/24 05:35:57;;;;;;;16.20;9.35;;;;;;;13.90;100.00;98587.84;5018365;28;20053;-92
2023/05/24 05:38:23;;;;;;;18.17;9.60;;;;;;;13.85;100.00;98597.84;5020574;28;20068;-92
2023/05/24 05:40:49;;;;;;;18.83;9.77;;;;;;;13.97;100.00;98599.13;5019466;28;20069;-94
2023/05/24 05:43:16;;;;;;;15.32;8.77;;;;;;;14.15;100.00;98578.72;5019870;28;20037;-93
2023/05/24 05:45:42;;;;;;;17.85;9.52;;;;;;;14.40;100.00;98589.22;5019590;28;20052;-92
2023/05/24 05:48:08;;;;;;;18.23;10.40;;;;;;;14.19;100.00;98591.03;5020260;28;20041;-92
2023/05/24 05:50:34;;;;;;;18.60;9.93;;;;;;;14.33;100.00;98598.44;5038808;28;20060;-92
2023/05/24 05:53:00;;;;;;;18.65;9.15;;;;;;;14.43;100.00;98625.66;5039792;28;20037;-94
2023/05/24 05:55:26;;;;;;;16.88;8.98;;;;;;;14.82;100.00;98595.34;5039280;28;20045;-95
2023/05/24 05:57:52;;;;;;;20.10;10.30;;;;;;;15.05;100.00;98621.91;5049282;28;20080;-93
2023/05/24 06:00:22;;;;;;;14.88;8.80;;;;;;;15.56;100.00;98608.72;5016150;28;20578;-95
2023/05/24 06:02:48;;;;;;;15.45;9.25;;;;;;;15.84;100.00;98602.84;5033116;28;20046;-93
2023/05/24 06:05:14;;;;;;;14.50;8.45;;;;;;;16.16;100.00;98598.50;5015901;28;20050;-93
2023/05/24 06:07:40;;;;;;;20.95;9.30;;;;;;;16.54;100.00;98616.19;5016374;28;20046;-94
2023/05/24 06:10:06;;;;;;;13.85;8.25;;;;;;;16.91;100.00;98617.75;5016101;28;20045;-93
2023/05/24 06:12:33;;;;;;;15.05;8.48;;;;;;;17.10;100.00;98617.59;5015644;28;20112;-93
2023/05/24 06:14:59;;;;;;;16.20;8.95;;;;;;;16.77;100.00;98593.47;5018619;28;20046;-92
2023/05/24 06:17:29;;;;;;;15.55;8.68;;;;;;;16.20;100.00;98589.34;5015656;28;20100;-94
2023/05/24 06:19:55;;;;;;;16.42;9.02;;;;;;;16.19;100.00;98601.00;5017347;28;20050;-93
2023/05/24 06:22:26;;;;;;;15.80;8.80;;;;;;;15.92;100.00;98599.78;5015927;28;20042;-95
2023/05/24 06:24:52;;;;;;;16.30;9.55;;;;;;;16.14;100.00;98612.94;5016703;28;20049;-94
2023/05/24 06:27:18;;;;;;;18.23;8.88;;;;;;;16.11;100.00;98595.22;5016374;28;20061;-93
2023/05/24 06:29:44;;;;;;;18.35;9.90;;;;;;;16.44;100.00;98602.41;5016075;28;20057;-93
2023/05/24 06:32:10;;;;;;;14.48;8.77;;;;;;;16.48;100.00;98608.47;5015881;28;20070;-94
2023/05/24 06:34:38;;;;;;;14.80;9.20;;;;;;;16.47;100.00;98618.34;5015058;28;20041;-93
2023/05/24 06:37:03;;;;;;;16.95;9.43;;;;;;;16.46;100.00;98632.72;5015150;28;20042;-95
2023/05/24 06:39:29;;;;;;;18.65;9.63;;;;;;;16.69;100.00;98611.81;5015535;28;20049;-94
2023/05/24 06:41:56;;;;;;;16.92;9.60;;;;;;;16.13;100.00;98604.00;5015031;28;20076;-95
2023/05/24 06:44:22;;;;;;;18.00;9.50;;;;;;;16.05;100.00;98611.63;5015307;28;20042;-94
2023/05/24 06:46:48;;;;;;;18.77;10.05;;;;;;;16.64;100.00;98639.78;5015019;28;20041;-94
2023/05/24 06:49:14;;;;;;;19.90;9.98;;;;;;;16.92;100.00;98615.97;5015123;28;20144;-94
2023/05/24 06:51:41;;;;;;;16.73;9.88;;;;;;;17.19;100.00;98618.91;5015159;28;20077;-94
2023/05/24 06:54:07;;;;;;;17.25;9.35;;;;;;;17.61;100.00;98628.19;5014919;28;20096;-93
2023/05/24 06:56:33;;;;;;;15.90;9.77;;;;;;;17.42;100.00;98623.00;5014406;28;20053;-93
2023/05/24 06:58:59;;;;;;;17.70;9.60;;;;;;;17.63;100.00;98620.84;5021614;28;20042;-93
2023/05/24 07:01:26;;;;;;;18.88;10.18;;;;;;;17.97;100.00;98611.69;5031635;28;20077;-94
2023/05/24 07:03:52;;;;;;;19.25;9.57;;;;;;;17.77;100.00;98604.78;5034266;28;20037;-94
2023/05/24 07:06:17;;;;;;;16.60;9.85;;;;;;;18.18;100.00;98627.53;5029611;28;20518;-95
2023/05/24 07:08:45;;;;;;;19.10;9.05;;;;;;;18.02;100.00;98625.75;5015004;28;20372;-94
2023/05/24 07:11:11;;;;;;;17.45;9.90;;;;;;;18.24;100.00;98625.34;5029377;28;20128;-94
2023/05/24 07:13:58;;;;;;;17.02;8.82;;;;;;;18.77;100.00;98620.28;5131047;27;20691;-93
2023/05/24 07:16:24;;;;;;;14.88;9.40;;;;;;;19.18;96.95;98621.31;5113130;28;20048;-95
2023/05/24 07:18:50;;;;;;;17.27;8.88;;;;;;;19.33;96.51;98608.69;5115089;28;20146;-94
2023/05/24 07:21:16;;;;;;;14.23;8.43;;;;;;;19.37;92.85;98621.88;5113397;28;20051;-95
2023/05/24 07:23:42;;;;;;;16.73;8.60;;;;;;;19.34;96.05;98602.31;5112723;28;20040;-94
2023/05/24 07:26:08;;;;;;;17.60;8.82;;;;;;;19.66;91.07;98613.66;5112475;28;20032;-95
2023/05/24 07:28:36;;;;;;;15.10;8.55;;;;;;;19.76;92.68;98609.44;5112282;28;20110;-95
2023/05/24 07:31:04;;;;;;;17.20;8.77;;;;;;;20.02;90.95;98598.69;5112059;28;20130;-94
2023/05/24 07:33:30;;;;;;;14.13;8.50;;;;;;;20.37;89.67;98592.69;5111679;28;20560;-94
2023/05/24 07:35:56;;;;;;;18.90;8.75;;;;;;;20.53;89.74;98609.53;5113722;28;20131;-94
2023/05/24 07:38:22;;;;;;;16.08;8.73;;;;;;;20.65;88.06;98597.91;5111485;28;20040;-91
2023/05/24 07:40:48;;;;;;;19.20;10.00;;;;;;;20.91;86.37;98605.97;5114343;28;20089;-94
2023/05/24 07:43:15;;;;;;;14.38;9.23;;;;;;;21.05;87.34;98602.28;5119991;28;20048;-94
2023/05/24 07:45:41;;;;;;;17.58;8.80;;;;;;;21.02;84.19;98568.22;5111277;28;20142;-93
2023/05/24 07:48:08;;;;;;;15.07;8.93;;;;;;;21.18;84.52;98584.16;5111260;28;20159;-95
2023/05/24 07:50:34;;;;;;;15.57;9.10;;;;;;;21.23;83.75;98570.31;5111397;27;20097;-93
2023/05/24 07:53:00;;;;;;;15.95;9.43;;;;;;;21.28;82.58;98560.03;5111370;28;20131;-96
2023/05/24 07:55:27;;;;;;;15.75;8.75;;;;;;;21.37;81.32;98555.78;5112296;28;20075;-95
2023/05/24 07:57:53;;;;;;;16.88;8.80;;;;;;;21.66;79.35;98567.97;5111539;28;20040;-96
2023/05/24 08:00:19;;;;;;;15.70;8.68;;;;;;;21.77;78.24;98561.75;5111835;28;20082;-95
2023/05/24 08:02:45;;;;;;;14.13;9.07;;;;;;;21.90;78.73;98578.81;5111395;28;20048;-95
2023/05/24 08:05:14;;;;;;;14.68;8.48;;;;;;;21.83;78.13;98582.09;5112250;28;20532;-95
2023/05/24 08:07:40;;;;;;;16.88;8.82;;;;;;;21.71;76.54;98557.69;5110868;28;20576;-94
2023/05/24 08:10:08;;;;;;;15.75;8.52;;;;;;;21.83;77.65;98555.88;5111616;28;20042;-94
2023/05/24 08:12:34;;;;;;;15.23;8.88;;;;;;;22.10;73.99;98579.13;5113225;28;20501;-93
2023/05/24 08:15:00;;;;;;;16.77;8.77;;;;;;;22.05;75.63;98586.72;5128374;28;20061;-94
2023/05/24 08:17:26;;;;;;;16.27;7.75;;;;;;;22.10;73.83;98585.38;5132932;28;20162;-94
2023/05/24 08:19:52;;;;;;;16.65;8.60;;;;;;;22.13;74.07;98554.50;5132283;27;20096;-95
2023/05/24 08:22:19;;;;;;;16.13;7.95;;;;;;;22.30;72.55;98581.16;5132522;27;20438;-95
2023/05/24 08:24:46;;;;;;;18.00;8.73;;;;;;;22.20;70.66;98580.09;5116892;28;20071;-95
2023/05/24 08:27:12;;;;;;;12.80;7.72;;;;;;;22.20;70.93;98558.44;5108617;28;20036;-95
2023/05/24 08:29:38;;;;;;;14.27;7.88;;;;;;;22.39;68.64;98573.28;5118145;28;20131;-94
2023/05/24 08:32:08;;;;;;;14.32;8.20;;;;;;;22.23;70.96;98543.81;5118277;28;20043;-95
2023/05/24 08:34:35;;;;;;;16.60;8.65;;;;;;;22.14;70.44;98556.19;5117233;28;20086;-95
2023/05/24 08:37:02;;;;;;;18.42;8.68;;;;;;;22.42;70.51;98565.75;5117805;28;20546;-95
2023/05/24 08:39:29;;;;;;;18.77;8.73;;;;;;;22.63;69.14;98557.78;5117937;28;20059;-96
2023/05/24 08:41:57;;;;;;;16.40;8.07;;;;;;;22.88;68.47;98563.94;5118304;28;20043;-95
2023/05/24 08:44:24;;;;;;;20.95;8.70;;;;;;;22.69;66.78;98576.28;5101584;28;20565;-94
2023/05/24 08:46:52;;;;;;;15.15;8.20;;;;;;;22.81;68.66;98571.69;5096479;28;20562;-93
2023/05/24 08:49:18;;;;;;;19.90;9.70;;;;;;;22.81;69.44;98562.72;5096896;28;20040;-94
2023/05/24 08:51:44;;;;;;;15.18;9.07;;;;;;;22.49;68.55;98549.91;5096831;28;20562;-95
2023/05/24 08:54:12;;;;;;;16.15;8.93;;;;;;;22.28;69.27;98542.47;5099780;28;20497;-95
2023/05/24 08:56:40;;;;;;;15.23;8.40;;;;;;;22.58;69.95;98559.16;5098047;28;20143;-95
2023/05/24 08:59:07;;;;;;;17.65;8.98;;;;;;;22.81;67.73;98538.31;5096998;28;20048;-96
2023/05/24 09:01:38;;;;;;;17.67;9.35;;;;;;;22.47;68.85;98541.03;5097754;28;20051;-93
2023/05/24 09:04:05;;;;;;;17.88;9.48;;;;;;;22.61;69.24;98576.00;5096583;28;20055;-96
2023/05/24 09:06:32;;;;;;;18.95;8.60;;;;;;;22.82;69.47;98540.91;5097479;28;20047;-95
2023/05/24 09:08:59;;;;;;;22.02;9.95;;;;;;;22.66;67.39;98530.44;5097820;28;20389;-94
2023/05/24 09:11:26;;;;;;;19.27;8.95;;;;;;;23.09;67.55;98566.78;5097591;28;20396;-94
2023/05/24 09:13:54;;;;;;;16.65;8.93;;;;;;;23.55;67.46;98563.84;5097489;28;20044;-94
2023/05/24 09:16:20;;;;;;;16.30;9.15;;;;;;;23.69;65.85;98540.97;5104928;28;20062;-95
2023/05/24 09:18:46;;;;;;;19.50;9.13;;;;;;;23.80;64.17;98556.38;5118221;28;20039;-95
2023/05/24 09:21:12;;;;;;;22.40;10.20;;;;;;;23.22;66.66;98528.66;5104277;28;20390;-95
2023/05/24 09:23:40;;;;;;;20.33;9.90;;;;;;;23.25;67.74;98541.97;5098010;28;20078;-94
2023/05/24 09:26:07;;;;;;;18.13;8.80;;;;;;;23.48;67.17;98549.03;5095648;28;20047;-95
2023/05/24 09:28:33;;;;;;;18.67;10.05;;;;;;;23.30;65.95;98520.75;5095779;28;20042;-94
2023/05/24 09:31:02;;;;;;;18.02;9.45;;;;;;;23.21;65.89;98548.66;5096357;28;20464;-94
2023/05/24 09:33:29;;;;;;;17.67;9.65;;;;;;;23.24;67.79;98554.66;5095903;28;20031;-95
2023/05/24 09:35:57;;;;;;;20.30;9.98;;;;;;;23.14;66.71;98541.00;5095315;28;20076;-95
2023/05/24 09:38:24;;;;;;;17.35;9.68;;;;;;;23.48;65.47;98527.34;5096051;28;20409;-95
2023/05/24 09:40:57;;;;;;;18.88;9.90;;;;;;;23.94;65.41;98550.63;5095668;28;20044;-95
2023/05/24 09:43:25;;;;;;;20.38;9.77;;;;;;;24.15;64.63;98533.47;5099051;28;20122;-94
2023/05/24 09:45:54;;;;;;;17.95;9.80;;;;;;;24.29;60.86;98533.13;5098618;28;20123;-95
2023/05/24 09:48:22;;;;;;;19.55;9.85;;;;;;;24.39;62.36;98528.59;5095661;28;20052;-94
2023/05/24 09:50:58;;;;;;;20.42;10.75;;;;;;;24.47;61.74;98546.09;5096140;28;20106;-95
2023/05/24 09:53:25;;;;;;;20.52;10.10;;;;;;;24.71;61.61;98552.09;5095794;28;20447;-95
2023/05/24 09:55:53;;;;;;;18.35;9.35;;;;;;;24.69;60.35;98505.16;5095959;28;20040;-96
2023/05/24 09:58:20;;;;;;;19.48;9.65;;;;;;;24.37;53.01;98518.84;5096644;28;20048;-96
2023/05/24 10:00:47;;;;;;;19.77;10.95;;;;;;;24.53;54.24;98512.97;5095666;28;20050;-95
2023/05/24 10:03:13;;;;;;;18.35;9.27;;;;;;;24.68;50.31;98522.47;5096364;28;20043;-94
2023/05/24 10:05:43;;;;;;;21.45;10.52;;;;;;;24.33;50.90;98503.81;5095357;28;20052;-95
2023/05/24 10:08:10;;;;;;;15.32;9.10;;;;;;;24.55;52.80;98527.28;5095752;28;20093;-95
2023/05/24 10:10:36;;;;;;;23.98;11.02;;;;;;;24.12;53.95;98531.88;5095452;28;20550;-93
2023/05/24 10:13:02;;;;;;;19.63;10.90;;;;;;;24.08;54.38;98511.41;5095184;28;20044;-94
2023/05/24 10:15:29;;;;;;;24.55;11.13;;;;;;;24.12;54.64;98509.28;5095364;28;20494;-95
2023/05/24 10:17:56;;;;;;;27.00;12.48;;;;;;;24.34;53.88;98513.69;5097343;28;20044;-95
2023/05/24 10:20:23;;;;;;;20.90;12.85;;;;;;;24.56;54.33;98499.09;5095981;28;20044;-96
2023/05/24 10:22:54;;;;;;;25.45;11.15;;;;;;;24.85;54.25;98501.06;5095566;28;20040;-95
2023/05/24 10:25:22;;;;;;;25.60;11.32;;;;;;;24.27;55.30;98498.94;5106916;28;20047;-96
2023/05/24 10:31:45;;;;;;;27.60;13.52;;;;;;;24.54;53.72;98495.66;5176279;27;20331;-94
2023/05/24 10:34:11;;;;;;;21.67;11.93;;;;;;;24.75;54.49;98477.41;5135993;27;20049;-95
2023/05/24 10:36:39;;;;;;;24.67;11.60;;;;;;;24.98;52.77;98482.63;5136770;27;20047;-95
2023/05/24 10:39:08;;;;;;;24.85;11.20;;;;;;;25.12;54.10;98481.38;5135845;27;20043;-96
2023/05/24 10:41:38;;;;;;;22.83;11.38;;;;;;;25.15;52.11;98471.06;5137084;27;20560;-96
2023/05/24 10:44:10;;;;;;;21.75;11.75;;;;;;;25.29;52.57;98460.81;5136534;27;20478;-95
2023/05/24 10:46:36;;;;;;;25.65;11.20;;;;;;;25.46;52.33;98472.81;5135561;27;20500;-95
2023/05/24 10:49:06;;;;;;;19.63;11.55;;;;;;;25.29;52.45;98478.00;5135681;27;20035;-94
2023/05/24 10:51:34;;;;;;;18.27;10.77;;;;;;;25.24;52.67;98457.63;5136771;27;20046;-95
2023/05/24 10:54:17;;;;;;;21.38;10.68;;;;;;;25.22;54.84;98482.25;5136896;27;20051;-95
2023/05/24 10:56:46;;;;;;;17.75;10.23;;;;;;;25.32;51.99;98474.97;5136611;27;20418;-95
2023/05/24 10:59:36;;;;;;;17.15;10.77;;;;;;;25.26;52.89;98455.63;5138164;27;20129;-94
2023/05/24 11:02:02;;;;;;;19.45;10.88;;;;;;;24.80;52.79;98447.09;5116297;28;20116;-95
2023/05/24 11:04:37;;;;;;;17.48;10.25;;;;;;;24.66;52.64;98448.34;5114536;28;20048;-95
2023/05/24 11:07:04;;;;;;;20.27;10.95;;;;;;;24.96;52.28;98439.25;5114875;28;20438;-95
2023/05/24 11:09:31;;;;;;;19.75;10.13;;;;;;;25.27;53.22;98441.88;5116104;28;20044;-95
2023/05/24 11:12:02;;;;;;;23.70;11.27;;;;;;;25.39;51.68;98424.44;5115628;28;20134;-95
2023/05/24 11:14:29;;;;;;;18.95;10.40;;;;;;;25.78;50.53;98442.56;5130934;27;20096;-95
2023/05/24 11:16:59;;;;;;;20.40;10.55;;;;;;;25.16;51.38;98431.13;5137447;27;20047;-93
2023/05/24 11:19:32;;;;;;;21.55;10.80;;;;;;;24.87;52.45;98440.06;5135792;27;20046;-91
2023/05/24 11:22:01;;;;;;;19.45;9.95;;;;;;;25.16;52.47;98425.69;5155724;27;20049;-94
2023/05/24 11:24:27;;;;;;;20.48;9.73;;;;;;;25.28;49.72;98410.09;5155500;27;20053;-94